Time;durP1;ratioP1;P1;durP2;ratioP2;P2;SDS_P1;SDS_P2;PMS_P1;PMS_P2;Temp;Humidity;BMP_temperature;BMP_pressure;BME280_temperature;BME280_humidity;BME280_pressure;Samples;Min_cycle;Max_cycle;Signal;HPM_P1;HPM_P2
2023/12/10 00:01:15;;;;;;;28.23;4.35;;;8.10;99.90;;;;;;5096162;28;20377;-81
2023/12/10 00:03:42;;;;;;;29.48;4.20;;;8.10;99.90;;;;;;5071648;28;20057;-76
2023/12/10 00:06:08;;;;;;;37.53;4.43;;;8.10;99.90;;;;;;5071990;27;20505;-79
2023/12/10 00:08:35;;;;;;;27.92;3.85;;;8.20;99.90;;;;;;5056407;28;20032;-79
2023/12/10 00:11:01;;;;;;;30.58;3.95;;;8.20;99.90;;;;;;5097599;28;20046;-81
2023/12/10 00:13:27;;;;;;;25.73;4.25;;;8.20;99.90;;;;;;5095378;28;20032;-83
2023/12/10 00:15:54;;;;;;;37.40;5.10;;;8.20;99.90;;;;;;5095351;27;20032;-82
2023/12/10 00:18:20;;;;;;;34.65;5.00;;;8.20;99.90;;;;;;5089661;28;20039;-80
2023/12/10 00:20:47;;;;;;;29.60;3.90;;;8.20;99.90;;;;;;5064063;28;20040;-80
2023/12/10 00:23:13;;;;;;;24.70;3.47;;;8.30;99.90;;;;;;5070237;27;20044;-80
2023/12/10 00:25:40;;;;;;;35.03;4.60;;;8.30;99.90;;;;;;5078131;28;20040;-81
2023/12/10 00:28:06;;;;;;;30.90;4.50;;;8.30;99.90;;;;;;5079472;28;20028;-78
2023/12/10 00:30:33;;;;;;;36.38;4.97;;;8.30;99.90;;;;;;5055604;28;20043;-76
2023/12/10 00:32:59;;;;;;;36.47;5.05;;;8.30;99.90;;;;;;5072140;28;20033;-79
2023/12/10 00:35:26;;;;;;;28.00;4.50;;;8.40;99.90;;;;;;5069445;28;20389;-78
2023/12/10 00:37:52;;;;;;;34.78;4.97;;;8.40;99.90;;;;;;5065574;28;20047;-79
2023/12/10 00:40:19;;;;;;;35.60;5.05;;;8.40;99.90;;;;;;5080167;28;20036;-80
2023/12/10 00:42:47;;;;;;;42.10;5.50;;;8.30;99.90;;;;;;5078822;28;20044;-78
2023/12/10 00:45:14;;;;;;;46.40;6.45;;;8.30;99.90;;;;;;5074843;28;20051;-78
2023/12/10 00:47:40;;;;;;;40.70;5.95;;;8.30;99.90;;;;;;5085444;28;20042;-81
2023/12/10 00:50:07;;;;;;;32.13;4.88;;;8.30;99.90;;;;;;5098241;28;20043;-81
2023/12/10 00:52:34;;;;;;;31.40;4.53;;;8.30;99.90;;;;;;5096821;28;20403;-78
2023/12/10 00:55:00;;;;;;;40.97;5.93;;;8.30;99.90;;;;;;5092857;28;20592;-76
2023/12/10 00:57:26;;;;;;;44.33;5.43;;;8.30;99.90;;;;;;5065506;28;20032;-78
2023/12/10 00:59:53;;;;;;;42.58;5.28;;;8.20;99.90;;;;;;5065329;28;20032;-78
2023/12/10 01:02:19;;;;;;;35.15;4.60;;;8.20;99.90;;;;;;5070093;28;20032;-82
2023/12/10 01:04:46;;;;;;;39.53;5.70;;;8.20;99.90;;;;;;5094684;27;20047;-82
2023/12/10 01:07:12;;;;;;;48.13;6.22;;;8.20;99.90;;;;;;5096779;27;20063;-75
2023/12/10 01:09:38;;;;;;;32.30;4.90;;;8.20;99.90;;;;;;5078458;28;20032;-79
2023/12/10 01:12:06;;;;;;;33.92;5.03;;;8.20;99.90;;;;;;5078983;28;20028;-79
2023/12/10 01:14:33;;;;;;;41.55;5.32;;;8.10;99.90;;;;;;5083605;28;20343;-79
2023/12/10 01:16:59;;;;;;;40.92;6.28;;;8.10;99.90;;;;;;5096000;28;20034;-79
2023/12/10 01:19:26;;;;;;;38.40;5.07;;;8.10;99.90;;;;;;5066884;28;20051;-79
2023/12/10 01:21:53;;;;;;;45.33;6.00;;;8.10;99.90;;;;;;5091660;28;20035;-77
2023/12/10 01:24:20;;;;;;;35.20;6.03;;;8.10;99.90;;;;;;5108428;27;20032;-80
2023/12/10 01:26:46;;;;;;;46.60;5.88;;;8.10;99.90;;;;;;5079499;28;20039;-81
2023/12/10 01:29:14;;;;;;;32.72;4.55;;;8.00;99.90;;;;;;5077632;28;20031;-79
2023/12/10 01:31:41;;;;;;;40.15;5.05;;;8.00;99.90;;;;;;5070042;28;20039;-82
2023/12/10 01:34:07;;;;;;;32.65;4.40;;;8.00;99.90;;;;;;5073794;28;20039;-81
2023/12/10 01:36:34;;;;;;;42.70;5.95;;;8.00;99.90;;;;;;5082478;28;20038;-78
2023/12/10 01:39:00;;;;;;;42.83;5.32;;;8.00;99.90;;;;;;5074991;28;20036;-77
2023/12/10 01:41:27;;;;;;;42.75;5.40;;;8.00;99.90;;;;;;5055170;28;20040;-79
2023/12/10 01:43:53;;;;;;;37.63;4.53;;;8.00;99.90;;;;;;5074228;28;20435;-79
2023/12/10 01:46:21;;;;;;;38.67;5.40;;;8.00;99.90;;;;;;5077705;28;20024;-78
2023/12/10 01:48:50;;;;;;;33.42;4.28;;;7.90;99.90;;;;;;5083174;28;20024;-78
2023/12/10 01:51:18;;;;;;;34.72;4.70;;;7.90;99.90;;;;;;5078510;28;20426;-80
2023/12/10 01:53:44;;;;;;;38.10;4.47;;;7.90;99.90;;;;;;5076961;28;20020;-76
2023/12/10 01:56:11;;;;;;;37.03;4.78;;;7.90;99.90;;;;;;5095200;28;20095;-81
2023/12/10 01:58:38;;;;;;;36.65;4.70;;;7.90;99.90;;;;;;5084156;28;20036;-79
2023/12/10 02:01:05;;;;;;;32.90;3.22;;;7.90;99.90;;;;;;5090101;28;20036;-81
2023/12/10 02:03:33;;;;;;;36.10;5.05;;;7.90;99.90;;;;;;5080996;28;20058;-79
2023/12/10 02:05:59;;;;;;;39.47;5.25;;;7.80;99.90;;;;;;5074011;28;20042;-78
2023/12/10 02:08:27;;;;;;;34.72;3.97;;;7.80;99.90;;;;;;5092772;28;20102;-80
2023/12/10 02:10:53;;;;;;;36.08;3.67;;;7.80;99.90;;;;;;5076251;28;20035;-79
2023/12/10 02:13:21;;;;;;;31.70;3.83;;;7.80;99.90;;;;;;5077085;28;20040;-80
2023/12/10 02:15:47;;;;;;;35.72;3.85;;;7.80;99.90;;;;;;5090653;28;20038;-78
2023/12/10 02:18:17;;;;;;;40.17;4.78;;;7.80;99.90;;;;;;5092053;28;20374;-82
2023/12/10 02:20:43;;;;;;;20.63;3.17;;;7.80;99.90;;;;;;5077205;28;20343;-81
2023/12/10 02:23:21;;;;;;;39.65;4.47;;;7.80;99.90;;;;;;5055716;28;20499;-79
2023/12/10 02:25:48;;;;;;;39.67;3.83;;;7.80;99.90;;;;;;5071286;28;20036;-79
2023/12/10 02:28:21;;;;;;;37.30;4.95;;;7.80;99.90;;;;;;5070467;28;20032;-82
2023/12/10 02:30:49;;;;;;;28.90;4.00;;;7.70;99.90;;;;;;5058955;28;20047;-79
2023/12/10 02:33:16;;;;;;;29.85;3.75;;;7.70;99.90;;;;;;5071955;28;20036;-81
2023/12/10 02:35:42;;;;;;;31.10;4.25;;;7.70;99.90;;;;;;5064910;28;20055;-77
2023/12/10 02:38:08;;;;;;;34.45;4.47;;;7.70;99.90;;;;;;5072430;28;20036;-78
2023/12/10 02:40:35;;;;;;;36.38;4.90;;;7.70;99.90;;;;;;5057221;28;20051;-82
2023/12/10 02:43:02;;;;;;;35.55;5.15;;;7.70;99.90;;;;;;5069758;28;20063;-78
2023/12/10 02:45:29;;;;;;;38.72;4.22;;;7.70;99.90;;;;;;5071732;28;20039;-77
2023/12/10 02:47:57;;;;;;;32.33;4.00;;;7.70;99.90;;;;;;5076795;28;20035;-78
2023/12/10 02:50:24;;;;;;;42.33;4.78;;;7.70;99.90;;;;;;5067030;28;20040;-77
2023/12/10 02:52:50;;;;;;;34.13;3.60;;;7.70;99.90;;;;;;5095978;28;20054;-81
2023/12/10 02:55:17;;;;;;;43.53;6.80;;;7.60;99.90;;;;;;5089777;28;20028;-80
2023/12/10 02:57:43;;;;;;;38.05;3.78;;;7.60;99.90;;;;;;5074672;28;20514;-80
2023/12/10 03:00:10;;;;;;;28.58;3.75;;;7.60;99.90;;;;;;5106858;27;20036;-80
2023/12/10 03:02:37;;;;;;;31.50;3.72;;;7.60;99.90;;;;;;5073606;28;20407;-77
2023/12/10 03:05:04;;;;;;;24.40;3.25;;;7.60;99.90;;;;;;5089814;28;20040;-77
2023/12/10 03:07:31;;;;;;;42.70;5.55;;;7.60;99.90;;;;;;5074393;28;20390;-79
2023/12/10 03:09:57;;;;;;;33.25;4.32;;;7.60;99.90;;;;;;5088547;28;20039;-80
2023/12/10 03:12:23;;;;;;;28.55;3.92;;;7.60;99.90;;;;;;5091898;28;20457;-79
2023/12/10 03:14:50;;;;;;;32.17;4.43;;;7.60;99.90;;;;;;5072638;28;20502;-79
2023/12/10 03:17:16;;;;;;;34.10;4.20;;;7.60;99.90;;;;;;5073843;28;20044;-79
2023/12/10 03:19:44;;;;;;;29.00;3.42;;;7.60;99.90;;;;;;5085442;28;20031;-81
2023/12/10 03:22:11;;;;;;;28.35;4.15;;;7.60;99.90;;;;;;5073192;28;20039;-81
2023/12/10 03:24:37;;;;;;;32.25;4.25;;;7.50;99.90;;;;;;5072451;28;20446;-77
2023/12/10 03:27:04;;;;;;;48.00;5.80;;;7.50;99.90;;;;;;5065925;28;20039;-81
2023/12/10 03:29:30;;;;;;;34.75;5.13;;;7.60;99.90;;;;;;5073685;28;20032;-79
2023/12/10 03:31:56;;;;;;;35.78;3.85;;;7.50;99.90;;;;;;5071254;28;20039;-78
2023/12/10 03:34:24;;;;;;;33.38;4.47;;;7.50;99.90;;;;;;5072242;28;20044;-79
2023/12/10 03:36:51;;;;;;;43.00;5.40;;;7.50;99.90;;;;;;5092311;28;20051;-77
2023/12/10 03:39:18;;;;;;;37.85;5.68;;;7.50;99.90;;;;;;5077299;28;20467;-79
2023/12/10 03:41:44;;;;;;;40.40;5.70;;;7.50;99.90;;;;;;5085232;28;20044;-82
2023/12/10 03:44:11;;;;;;;45.40;5.13;;;7.50;99.90;;;;;;5069721;28;20036;-78
2023/12/10 03:46:37;;;;;;;35.60;4.95;;;7.50;99.90;;;;;;5068519;28;20042;-80
2023/12/10 03:49:03;;;;;;;46.63;5.45;;;7.50;99.90;;;;;;5066984;28;20042;-78
2023/12/10 03:51:30;;;;;;;51.92;4.93;;;7.50;99.90;;;;;;5068724;28;20036;-80
2023/12/10 03:53:56;;;;;;;35.42;4.50;;;7.50;99.90;;;;;;5070403;28;20047;-77
2023/12/10 03:56:23;;;;;;;45.95;5.80;;;7.50;99.90;;;;;;5091094;28;20032;-79
2023/12/10 03:58:49;;;;;;;39.13;5.25;;;7.50;99.90;;;;;;5088084;28;20797;-79
2023/12/10 04:01:15;;;;;;;27.63;4.35;;;7.50;99.90;;;;;;5067372;28;20039;-81
2023/12/10 04:03:42;;;;;;;40.80;4.88;;;7.50;99.90;;;;;;5092978;28;20474;-79
2023/12/10 04:06:08;;;;;;;43.90;5.43;;;7.50;99.90;;;;;;5094317;28;20035;-81
2023/12/10 04:08:35;;;;;;;37.33;4.38;;;7.50;99.90;;;;;;5072699;28;20036;-80
2023/12/10 04:11:02;;;;;;;32.33;4.70;;;7.50;99.90;;;;;;5059660;28;20031;-81
2023/12/10 04:13:29;;;;;;;39.15;5.55;;;7.50;99.90;;;;;;5066821;28;20036;-80
2023/12/10 04:15:56;;;;;;;46.42;5.68;;;7.50;99.90;;;;;;5068784;28;20042;-81
2023/12/10 04:18:22;;;;;;;41.13;4.13;;;7.50;99.90;;;;;;5066891;28;20055;-77
2023/12/10 04:20:49;;;;;;;41.92;5.60;;;7.50;99.90;;;;;;5068661;28;20036;-78
2023/12/10 04:23:15;;;;;;;42.13;5.25;;;7.50;99.90;;;;;;5086975;28;20044;-80
2023/12/10 04:25:41;;;;;;;38.78;5.22;;;7.50;99.90;;;;;;5074316;28;20040;-80
2023/12/10 04:28:08;;;;;;;44.42;6.30;;;7.50;99.90;;;;;;5056160;28;20043;-78
2023/12/10 04:30:34;;;;;;;36.55;4.60;;;7.50;99.90;;;;;;5078631;28;20092;-80
2023/12/10 04:33:01;;;;;;;37.30;5.35;;;7.60;99.90;;;;;;5073614;28;20070;-79
2023/12/10 04:35:27;;;;;;;35.28;5.18;;;7.60;99.90;;;;;;5072346;28;20032;-79
2023/12/10 04:37:53;;;;;;;60.40;7.95;;;7.60;99.90;;;;;;5074435;28;20028;-81
2023/12/10 04:40:21;;;;;;;35.95;4.32;;;7.50;99.90;;;;;;5074589;28;20035;-81
2023/12/10 04:42:49;;;;;;;37.85;5.07;;;7.60;99.90;;;;;;5090217;28;20051;-77
2023/12/10 04:45:16;;;;;;;44.47;5.35;;;7.60;99.90;;;;;;5110408;27;20059;-81
2023/12/10 04:47:43;;;;;;;30.45;3.95;;;7.60;99.90;;;;;;5096522;28;20063;-77
2023/12/10 04:50:09;;;;;;;42.60;5.10;;;7.60;99.90;;;;;;5057516;28;20040;-76
2023/12/10 04:52:36;;;;;;;40.78;4.88;;;7.60;99.90;;;;;;5109421;27;20043;-79
2023/12/10 04:55:03;;;;;;;42.75;4.95;;;7.60;99.90;;;;;;5077278;28;20043;-80
2023/12/10 04:57:29;;;;;;;45.15;5.85;;;7.60;99.90;;;;;;5070363;28;20546;-79
2023/12/10 04:59:55;;;;;;;41.10;5.10;;;7.60;99.90;;;;;;5078960;28;20028;-80
2023/12/10 05:02:22;;;;;;;39.30;5.13;;;7.60;99.90;;;;;;5069357;28;20128;-78
2023/12/10 05:04:48;;;;;;;34.05;4.68;;;7.60;99.90;;;;;;5074705;28;20406;-78
2023/12/10 05:07:15;;;;;;;35.22;4.70;;;7.60;99.90;;;;;;5083115;28;20051;-80
2023/12/10 05:09:41;;;;;;;40.30;6.03;;;7.60;99.90;;;;;;5075055;28;20050;-81
2023/12/10 05:12:07;;;;;;;40.90;4.82;;;7.60;99.90;;;;;;5060284;28;20040;-75
2023/12/10 05:14:34;;;;;;;33.22;4.15;;;7.60;99.90;;;;;;5060950;28;20031;-81
2023/12/10 05:17:00;;;;;;;29.25;4.80;;;7.60;99.90;;;;;;5079347;28;20036;-77
2023/12/10 05:19:27;;;;;;;47.65;4.72;;;7.70;99.90;;;;;;5070528;28;20035;-81
2023/12/10 05:21:53;;;;;;;40.13;5.93;;;7.60;99.90;;;;;;5071957;28;20039;-79
2023/12/10 05:24:19;;;;;;;46.17;4.18;;;7.60;99.90;;;;;;5068352;28;20040;-81
2023/12/10 05:26:47;;;;;;;28.52;4.80;;;7.60;99.90;;;;;;5073494;28;20039;-81
2023/12/10 05:29:13;;;;;;;31.55;4.72;;;7.60;99.90;;;;;;5092962;28;20039;-79
2023/12/10 05:31:40;;;;;;;33.05;4.43;;;7.60;99.90;;;;;;5091688;28;20522;-79
2023/12/10 05:34:07;;;;;;;33.13;4.47;;;7.60;99.90;;;;;;5073160;28;20042;-79
2023/12/10 05:36:33;;;;;;;34.03;4.32;;;7.60;99.90;;;;;;5063888;28;20040;-80
2023/12/10 05:39:00;;;;;;;34.35;4.47;;;7.60;99.90;;;;;;5064872;28;20032;-79
2023/12/10 05:41:26;;;;;;;27.90;3.78;;;7.60;99.90;;;;;;5097318;27;20036;-80
2023/12/10 05:43:53;;;;;;;36.45;4.93;;;7.60;99.90;;;;;;5078565;28;20418;-81
2023/12/10 05:46:19;;;;;;;37.78;6.05;;;7.60;99.90;;;;;;5076735;28;20482;-81
2023/12/10 05:48:45;;;;;;;36.30;5.03;;;7.70;99.90;;;;;;5057210;28;20044;-81
2023/12/10 05:51:12;;;;;;;40.70;5.28;;;7.70;99.90;;;;;;5062437;28;20043;-81
2023/12/10 05:53:38;;;;;;;42.40;4.40;;;7.70;99.90;;;;;;5074238;28;20553;-82
2023/12/10 05:56:05;;;;;;;39.58;4.43;;;7.70;99.90;;;;;;5079988;28;20031;-82
2023/12/10 05:58:31;;;;;;;46.35;4.50;;;7.70;99.90;;;;;;5092484;28;20031;-80
2023/12/10 06:00:58;;;;;;;37.15;4.57;;;7.70;99.90;;;;;;5074440;28;20427;-77
2023/12/10 06:03:25;;;;;;;30.75;4.50;;;7.70;99.90;;;;;;5084841;28;20040;-78
2023/12/10 06:05:51;;;;;;;37.75;5.05;;;7.70;99.90;;;;;;5072071;28;20040;-83
2023/12/10 06:08:18;;;;;;;34.63;4.32;;;7.70;99.90;;;;;;5072275;28;20036;-80
2023/12/10 06:10:44;;;;;;;29.08;4.35;;;7.70;99.90;;;;;;5051138;28;20027;-80
2023/12/10 06:13:11;;;;;;;46.05;5.53;;;7.70;99.90;;;;;;5071375;28;20039;-80
2023/12/10 06:15:37;;;;;;;33.53;4.47;;;7.70;99.90;;;;;;5068226;28;20050;-81
2023/12/10 06:18:04;;;;;;;39.55;5.03;;;7.70;99.90;;;;;;5067084;28;20032;-80
2023/12/10 06:20:30;;;;;;;42.63;4.57;;;7.70;99.90;;;;;;5090456;28;20024;-77
2023/12/10 06:22:57;;;;;;;43.00;5.30;;;7.70;99.90;;;;;;5068505;28;20036;-80
2023/12/10 06:25:23;;;;;;;41.58;4.60;;;7.70;99.90;;;;;;5073729;28;20050;-79
2023/12/10 06:27:49;;;;;;;28.50;4.45;;;7.70;99.90;;;;;;5075644;28;20035;-80
2023/12/10 06:30:16;;;;;;;32.65;3.72;;;7.70;99.90;;;;;;5074683;28;20031;-81
2023/12/10 06:32:43;;;;;;;42.58;4.05;;;7.70;99.90;;;;;;5071086;28;20521;-78
2023/12/10 06:35:09;;;;;;;40.08;4.68;;;7.70;99.90;;;;;;5066870;28;20534;-81
2023/12/10 06:37:37;;;;;;;47.15;5.22;;;7.70;99.90;;;;;;5057966;28;20035;-78
2023/12/10 06:40:05;;;;;;;28.92;3.70;;;7.70;99.90;;;;;;5081438;28;20513;-79
2023/12/10 06:42:33;;;;;;;37.33;5.10;;;7.70;99.90;;;;;;5077235;28;20035;-77
2023/12/10 06:45:00;;;;;;;32.80;4.95;;;7.80;99.90;;;;;;5058987;28;20043;-79
2023/12/10 06:47:27;;;;;;;36.90;3.85;;;7.70;99.90;;;;;;5055998;28;20043;-80
2023/12/10 06:49:53;;;;;;;40.03;4.78;;;7.80;99.90;;;;;;5079547;28;20038;-79
2023/12/10 06:52:20;;;;;;;39.38;3.80;;;7.80;99.90;;;;;;5067699;28;20039;-77
2023/12/10 06:54:46;;;;;;;30.08;4.80;;;7.80;99.90;;;;;;5076790;28;20027;-80
2023/12/10 06:57:13;;;;;;;38.85;5.68;;;7.80;99.90;;;;;;5071402;28;20035;-77
2023/12/10 06:59:39;;;;;;;37.55;4.82;;;7.80;99.90;;;;;;5095112;28;20035;-79
2023/12/10 07:02:06;;;;;;;40.80;4.43;;;7.80;99.90;;;;;;5068390;28;20044;-80
2023/12/10 07:04:33;;;;;;;46.92;5.20;;;7.80;99.90;;;;;;5076887;28;20414;-77
2023/12/10 07:06:59;;;;;;;36.30;4.05;;;7.80;99.90;;;;;;5075774;28;20046;-81
2023/12/10 07:09:26;;;;;;;32.47;4.70;;;7.80;99.90;;;;;;5078297;28;20382;-77
2023/12/10 07:11:52;;;;;;;27.23;3.00;;;7.80;99.90;;;;;;5061939;28;20437;-77
2023/12/10 07:14:19;;;;;;;34.97;5.28;;;7.80;99.90;;;;;;5074853;28;20035;-78
2023/12/10 07:16:45;;;;;;;30.70;4.80;;;7.90;99.90;;;;;;5068764;28;20040;-79
2023/12/10 07:19:12;;;;;;;33.35;4.32;;;7.90;99.90;;;;;;5091583;28;20038;-77
2023/12/10 07:21:38;;;;;;;35.72;5.32;;;7.80;99.90;;;;;;5066508;28;20409;-79
2023/12/10 07:24:05;;;;;;;32.30;4.72;;;7.90;99.90;;;;;;5076175;28;20039;-80
2023/12/10 07:26:31;;;;;;;42.83;4.45;;;7.90;99.90;;;;;;5064465;28;20032;-79
2023/12/10 07:28:58;;;;;;;41.75;4.88;;;7.90;99.90;;;;;;5069505;28;20039;-76
2023/12/10 07:31:24;;;;;;;39.67;5.25;;;7.90;99.90;;;;;;5068794;28;20062;-80
2023/12/10 07:33:50;;;;;;;33.03;4.53;;;7.90;99.90;;;;;;5092680;28;20035;-78
2023/12/10 07:36:17;;;;;;;36.05;6.28;;;8.00;99.90;;;;;;5068090;28;20036;-80
2023/12/10 07:38:43;;;;;;;33.88;4.07;;;8.00;99.90;;;;;;5074950;28;20036;-77
2023/12/10 07:41:10;;;;;;;38.78;4.35;;;8.00;99.90;;;;;;5070088;28;20032;-80
2023/12/10 07:43:36;;;;;;;35.55;5.20;;;8.00;99.90;;;;;;5068663;28;20031;-79
2023/12/10 07:46:03;;;;;;;33.85;4.13;;;8.00;99.90;;;;;;5069989;28;20044;-76
2023/12/10 07:48:29;;;;;;;26.80;3.50;;;8.00;99.90;;;;;;5075329;28;20032;-75
2023/12/10 07:50:56;;;;;;;32.53;4.97;;;8.00;99.90;;;;;;5071637;28;20032;-76
2023/12/10 07:53:22;;;;;;;24.33;3.63;;;8.10;99.90;;;;;;5052235;28;20529;-78
2023/12/10 07:55:48;;;;;;;28.98;3.45;;;8.10;99.90;;;;;;5067978;28;20059;-75
2023/12/10 07:58:15;;;;;;;37.05;4.35;;;8.10;99.90;;;;;;5062319;28;20043;-78
2023/12/10 08:00:46;;;;;;;37.15;4.53;;;8.10;99.90;;;;;;5074037;28;20036;-73
2023/12/10 08:03:14;;;;;;;27.83;4.43;;;8.10;99.90;;;;;;5076968;28;20047;-78
2023/12/10 08:05:40;;;;;;;30.52;3.85;;;8.10;99.90;;;;;;5055421;28;20519;-76
2023/12/10 08:08:07;;;;;;;31.27;4.57;;;8.10;99.90;;;;;;5076734;28;20047;-76
2023/12/10 08:10:33;;;;;;;25.67;3.92;;;8.20;99.90;;;;;;5074944;28;20036;-78
2023/12/10 08:13:00;;;;;;;31.10;3.67;;;8.20;99.90;;;;;;5095344;28;20036;-75
2023/12/10 08:15:27;;;;;;;30.42;3.85;;;8.20;99.90;;;;;;5070834;28;20469;-77
2023/12/10 08:17:53;;;;;;;28.65;4.03;;;8.20;99.90;;;;;;5071288;28;20068;-76
2023/12/10 08:20:19;;;;;;;28.80;4.32;;;8.20;99.90;;;;;;5072931;28;20031;-75
2023/12/10 08:22:48;;;;;;;30.92;3.90;;;8.20;99.90;;;;;;5073848;28;20054;-76
2023/12/10 08:25:14;;;;;;;31.85;4.60;;;8.20;99.90;;;;;;5081305;28;20383;-77
2023/12/10 08:27:41;;;;;;;21.23;3.80;;;8.30;99.90;;;;;;5078525;28;20348;-74
2023/12/10 08:30:08;;;;;;;33.70;4.32;;;8.30;99.90;;;;;;5089398;28;20050;-75
2023/12/10 08:32:35;;;;;;;26.63;3.72;;;8.30;99.90;;;;;;5078239;28;20059;-75
2023/12/10 08:35:01;;;;;;;30.30;3.88;;;8.30;99.90;;;;;;5073568;28;20039;-74
2023/12/10 08:37:28;;;;;;;32.60;3.90;;;8.30;99.90;;;;;;5096980;28;20506;-78
2023/12/10 08:39:54;;;;;;;26.95;4.38;;;8.30;99.90;;;;;;5093897;28;20038;-77
2023/12/10 08:42:21;;;;;;;27.40;3.70;;;8.30;99.90;;;;;;5083500;28;20027;-77
2023/12/10 08:44:47;;;;;;;26.63;3.92;;;8.30;99.90;;;;;;5070359;28;20032;-75
2023/12/10 08:47:14;;;;;;;26.05;4.10;;;8.30;99.90;;;;;;5080026;28;20028;-75
2023/12/10 08:49:40;;;;;;;22.20;4.03;;;8.40;99.90;;;;;;5073125;28;20113;-77
2023/12/10 08:52:06;;;;;;;29.17;3.05;;;8.40;99.90;;;;;;5065077;28;20024;-77
2023/12/10 08:54:33;;;;;;;21.40;3.67;;;8.40;99.90;;;;;;5073309;28;20038;-75
2023/12/10 08:56:59;;;;;;;32.00;3.58;;;8.40;99.90;;;;;;5073383;28;20043;-77
2023/12/10 08:59:26;;;;;;;24.95;3.25;;;8.40;99.90;;;;;;5070841;28;20050;-77
2023/12/10 09:01:52;;;;;;;24.13;3.60;;;8.40;99.90;;;;;;5073606;28;20032;-75
2023/12/10 09:04:19;;;;;;;26.58;4.20;;;8.50;99.90;;;;;;5070330;28;20039;-73
2023/12/10 09:06:45;;;;;;;26.08;3.55;;;8.50;99.90;;;;;;5073375;28;20032;-76
2023/12/10 09:09:11;;;;;;;20.35;2.60;;;8.50;99.90;;;;;;5077682;28;20028;-77
2023/12/10 09:11:38;;;;;;;26.83;3.60;;;8.50;99.90;;;;;;5067354;28;20042;-76
2023/12/10 09:14:07;;;;;;;20.98;3.20;;;8.50;99.90;;;;;;5077566;28;20496;-76
2023/12/10 09:16:34;;;;;;;25.63;2.65;;;8.50;99.90;;;;;;5071648;28;20035;-77
2023/12/10 09:19:00;;;;;;;20.35;2.40;;;8.50;99.90;;;;;;5078192;28;20028;-76
2023/12/10 09:21:27;;;;;;;29.15;3.33;;;8.50;99.90;;;;;;5069050;28;20039;-77
2023/12/10 09:23:53;;;;;;;22.80;2.95;;;8.50;99.90;;;;;;5092795;28;20043;-76
2023/12/10 09:26:19;;;;;;;28.67;4.00;;;8.60;99.90;;;;;;5074085;28;20043;-87
2023/12/10 09:28:46;;;;;;;22.65;3.00;;;8.60;99.90;;;;;;5085368;28;20048;-78
2023/12/10 09:31:12;;;;;;;26.38;4.43;;;8.60;99.90;;;;;;5074638;28;20032;-80
2023/12/10 09:33:39;;;;;;;24.38;4.13;;;8.70;99.90;;;;;;5067214;28;20035;-79
2023/12/10 09:36:05;;;;;;;21.58;2.65;;;8.70;99.90;;;;;;5071823;28;20032;-79
2023/12/10 09:38:32;;;;;;;23.17;2.67;;;8.70;99.90;;;;;;5073626;28;20035;-79
2023/12/10 09:40:58;;;;;;;26.95;3.70;;;8.70;99.90;;;;;;5081610;27;20035;-80
2023/12/10 09:43:25;;;;;;;33.75;4.20;;;8.70;99.90;;;;;;5096017;28;20034;-74
2023/12/10 09:45:51;;;;;;;21.08;2.97;;;8.80;99.90;;;;;;5076148;28;20075;-79
2023/12/10 09:48:18;;;;;;;23.55;3.10;;;8.80;99.90;;;;;;5068070;28;20039;-81
2023/12/10 09:50:45;;;;;;;21.67;2.80;;;8.80;99.90;;;;;;5090294;28;20039;-80
2023/12/10 09:53:11;;;;;;;31.95;4.40;;;8.80;99.90;;;;;;5075257;28;20034;-80
2023/12/10 09:55:38;;;;;;;17.48;2.67;;;8.80;99.90;;;;;;5078764;28;20042;-79
2023/12/10 09:58:04;;;;;;;22.25;3.17;;;8.80;99.90;;;;;;5071376;28;20494;-80
2023/12/10 10:00:31;;;;;;;25.55;4.00;;;8.90;99.90;;;;;;5076601;28;20502;-78
2023/12/10 10:03:03;;;;;;;20.83;3.17;;;8.90;99.90;;;;;;5067916;28;20039;-80
2023/12/10 10:05:32;;;;;;;21.45;2.72;;;9.00;99.90;;;;;;5067918;28;20040;-79
2023/12/10 10:07:59;;;;;;;22.08;3.00;;;9.00;99.90;;;;;;5078969;27;20043;-81
2023/12/10 10:10:26;;;;;;;16.98;2.63;;;9.00;99.90;;;;;;5091249;28;20032;-81
2023/12/10 10:12:56;;;;;;;27.80;3.75;;;9.10;99.90;;;;;;5069217;28;20040;-81
2023/12/10 10:15:28;;;;;;;20.80;3.00;;;9.00;99.90;;;;;;5071297;28;20040;-81
2023/12/10 10:17:57;;;;;;;25.33;3.08;;;9.10;99.90;;;;;;5086214;28;20035;-79
2023/12/10 10:20:25;;;;;;;19.23;3.08;;;9.10;99.90;;;;;;5076108;28;20040;-80
2023/12/10 10:22:52;;;;;;;17.60;2.65;;;9.20;99.90;;;;;;5074886;28;20046;-83
2023/12/10 10:25:20;;;;;;;18.23;3.20;;;9.20;99.90;;;;;;5075350;28;20427;-82
2023/12/10 10:27:49;;;;;;;17.33;2.75;;;9.20;99.90;;;;;;5075121;28;20039;-80
2023/12/10 10:30:16;;;;;;;17.73;2.65;;;9.20;99.90;;;;;;5090711;28;20032;-80
2023/12/10 10:32:44;;;;;;;23.52;3.38;;;9.20;99.90;;;;;;5058861;28;20042;-79
2023/12/10 10:35:12;;;;;;;20.73;2.60;;;9.20;99.90;;;;;;5069139;28;20356;-81
2023/12/10 10:37:38;;;;;;;23.70;2.38;;;9.20;99.90;;;;;;5056258;28;20038;-79
2023/12/10 10:40:06;;;;;;;21.88;3.83;;;9.20;99.90;;;;;;5083421;28;20032;-79
2023/12/10 10:42:32;;;;;;;19.40;3.13;;;9.20;99.90;;;;;;5054239;28;20113;-80
2023/12/10 10:44:59;;;;;;;25.75;3.33;;;9.20;99.90;;;;;;5075295;28;20431;-79
2023/12/10 10:47:28;;;;;;;20.77;3.33;;;9.30;99.90;;;;;;5071352;28;20411;-79
2023/12/10 10:49:57;;;;;;;26.80;3.63;;;9.20;99.90;;;;;;5088914;28;20094;-78
2023/12/10 10:52:27;;;;;;;27.77;4.43;;;9.30;99.90;;;;;;5106966;27;20054;-77
2023/12/10 10:54:55;;;;;;;21.23;3.03;;;9.30;99.90;;;;;;5074890;28;20480;-79
2023/12/10 10:57:31;;;;;;;21.42;3.38;;;9.30;99.90;;;;;;5082866;28;20063;-82
2023/12/10 10:59:58;;;;;;;21.38;3.08;;;9.30;99.90;;;;;;5084155;28;20558;-82
2023/12/10 11:02:24;;;;;;;25.67;4.28;;;9.30;99.90;;;;;;5092923;27;20496;-82
2023/12/10 11:04:51;;;;;;;26.02;4.22;;;9.30;99.90;;;;;;5074704;28;20043;-83
2023/12/10 11:07:21;;;;;;;23.98;4.00;;;9.30;99.90;;;;;;5052120;28;20039;-84
2023/12/10 11:10:05;;;;;;;24.65;3.65;;;9.30;99.90;;;;;;5067800;28;20048;-83
2023/12/10 11:12:41;;;;;;;23.50;2.78;;;9.40;99.90;;;;;;5075791;28;20055;-82
2023/12/10 11:15:16;;;;;;;23.75;3.53;;;9.40;99.90;;;;;;5086435;28;20184;-88
2023/12/10 11:17:58;;;;;;;23.30;3.40;;;9.40;99.90;;;;;;5069800;28;20031;-81
2023/12/10 11:20:32;;;;;;;22.85;3.25;;;9.50;99.90;;;;;;5098624;28;20039;-81
2023/12/10 11:22:59;;;;;;;28.20;3.10;;;9.60;99.90;;;;;;5069941;28;20039;-85
2023/12/10 11:25:28;;;;;;;24.92;3.60;;;9.70;99.90;;;;;;5053441;28;20059;-85
2023/12/10 11:27:57;;;;;;;27.25;3.78;;;9.70;99.90;;;;;;5058420;28;20196;-86
2023/12/10 11:30:24;;;;;;;16.90;2.97;;;9.80;99.90;;;;;;5075683;28;20169;-85
2023/12/10 11:32:51;;;;;;;24.00;3.08;;;9.80;99.90;;;;;;5069731;28;20662;-84
2023/12/10 11:35:17;;;;;;;28.77;3.17;;;9.80;99.90;;;;;;5067666;28;20032;-86
2023/12/10 11:37:43;;;;;;;18.83;3.47;;;9.80;99.90;;;;;;5089991;28;20036;-85
2023/12/10 11:40:10;;;;;;;20.65;2.78;;;9.90;99.90;;;;;;5085620;28;20466;-85
2023/12/10 11:42:37;;;;;;;22.25;3.78;;;9.90;99.90;;;;;;5079634;28;20036;-82
2023/12/10 11:45:04;;;;;;;21.65;4.03;;;9.90;99.90;;;;;;5073727;27;20039;-79
2023/12/10 11:47:31;;;;;;;18.33;2.00;;;9.90;99.90;;;;;;5079665;28;20098;-80
2023/12/10 11:49:58;;;;;;;19.75;3.20;;;9.90;99.90;;;;;;5094051;28;20042;-85
2023/12/10 11:52:24;;;;;;;26.25;3.03;;;10.00;99.90;;;;;;5081008;28;20458;-82
2023/12/10 11:54:51;;;;;;;23.38;2.65;;;10.00;99.90;;;;;;5077061;28;20043;-84
2023/12/10 11:57:17;;;;;;;20.80;3.30;;;10.00;99.90;;;;;;5072371;28;20043;-85
2023/12/10 11:59:48;;;;;;;21.20;3.40;;;10.10;99.90;;;;;;5080475;28;20028;-83
2023/12/10 12:02:15;;;;;;;28.50;3.75;;;10.10;99.90;;;;;;5070636;28;20040;-82
2023/12/10 12:04:42;;;;;;;24.02;3.38;;;10.10;99.90;;;;;;5072487;28;20043;-81
2023/12/10 12:07:28;;;;;;;21.15;3.03;;;10.20;99.90;;;;;;5083483;28;20044;-81
2023/12/10 12:09:55;;;;;;;22.98;3.95;;;10.30;99.90;;;;;;5076849;28;20509;-84
2023/12/10 12:12:22;;;;;;;19.48;2.58;;;10.30;99.90;;;;;;5078948;27;20046;-80
2023/12/10 12:14:51;;;;;;;25.38;2.65;;;10.30;99.90;;;;;;5082306;28;20042;-82
2023/12/10 12:17:19;;;;;;;19.80;2.15;;;10.30;99.90;;;;;;5074849;28;20079;-84
2023/12/10 12:19:46;;;;;;;22.35;3.22;;;10.30;99.90;;;;;;5085155;28;20482;-86
2023/12/10 12:22:14;;;;;;;17.88;2.83;;;10.30;99.90;;;;;;5093746;28;20040;-83
2023/12/10 12:24:40;;;;;;;21.20;3.22;;;10.30;99.90;;;;;;5070512;28;20115;-81
2023/12/10 12:27:07;;;;;;;15.93;2.40;;;10.30;99.90;;;;;;5071296;28;20036;-79
2023/12/10 12:29:35;;;;;;;22.40;3.83;;;10.40;99.90;;;;;;5073081;28;20040;-80
2023/12/10 12:32:03;;;;;;;17.15;2.25;;;10.30;99.90;;;;;;5080720;28;20036;-78
2023/12/10 12:34:29;;;;;;;19.40;2.60;;;10.30;99.90;;;;;;5067447;28;20475;-80
2023/12/10 12:36:56;;;;;;;15.40;2.65;;;10.30;99.90;;;;;;5072892;28;20039;-78
2023/12/10 12:39:24;;;;;;;16.38;2.22;;;10.30;99.90;;;;;;5080227;28;20034;-78
2023/12/10 12:41:51;;;;;;;22.60;2.80;;;10.30;99.90;;;;;;5098981;27;20046;-84
2023/12/10 12:44:18;;;;;;;20.27;2.25;;;10.30;99.90;;;;;;5061395;28;20043;-77